Weather at Loreto International Airport

Public forecast

Using degrees Celsius for public forecast. Weather courtesy of forecast.io.

Current aviation weather report (METAR) for Loreto International Airport

2024/06/18 21:40 (retrieved 1 hour ago)

MMLT 182140Z 16012KT 10SM SKC 32/21 A2965

Aviation forecast (TAF) for Loreto International Airport

2024/06/18 18:58 (retrieved 4 hours ago)

TAF MMLT 181653Z 1818/1918 06015KT P6SM SKC FM190300 12010KT P6SM SKC